createdAt,value
2023-05-22T13:55:35.000Z,2
2023-05-22T13:55:45.000Z,2
2023-05-22T13:55:55.000Z,2
2023-05-22T13:56:06.000Z,6
2023-05-22T13:56:14.000Z,6
2023-05-22T13:56:25.000Z,5
2023-05-22T13:56:37.000Z,4
2023-05-22T13:56:47.000Z,4
2023-05-22T13:56:59.000Z,5
2023-05-22T13:57:25.000Z,5
2023-05-22T13:57:35.000Z,4
2023-05-22T13:57:46.000Z,4
2023-05-22T13:57:57.000Z,4
2023-05-22T13:58:02.000Z,4
2023-05-22T13:58:15.000Z,5
2023-05-22T13:58:28.000Z,5
2023-05-22T13:58:34.000Z,4
2023-05-22T13:58:48.000Z,4
2023-05-22T13:58:54.000Z,4
2023-05-22T13:59:10.000Z,4
2023-05-22T13:59:15.000Z,4
2023-05-22T13:59:25.000Z,4
2023-05-22T13:59:43.000Z,4
2023-05-22T13:59:50.000Z,4
2023-05-22T13:59:56.000Z,4
2023-05-22T14:00:06.000Z,4
2023-05-22T14:00:25.000Z,4
2023-05-22T14:00:35.000Z,4
2023-05-22T14:00:46.000Z,4
2023-05-22T14:00:53.000Z,4
2023-05-22T14:01:01.000Z,4
2023-05-22T14:01:11.000Z,4
2023-05-22T14:01:20.000Z,4
2023-05-22T14:01:39.000Z,4
2023-05-22T14:01:49.000Z,4
2023-05-22T14:01:57.000Z,5
2023-05-22T14:02:07.000Z,5
2023-05-22T14:02:15.000Z,4
2023-05-22T14:02:24.000Z,4
2023-05-22T14:02:33.000Z,4
2023-05-22T14:02:53.000Z,4
2023-05-22T14:03:04.000Z,4
2023-05-22T14:03:12.000Z,4
2023-05-22T14:03:25.000Z,4
2023-05-22T14:03:35.000Z,4
2023-05-22T14:03:43.000Z,5
2023-05-22T14:03:57.000Z,4
2023-05-22T14:04:05.000Z,4
2023-05-22T14:04:18.000Z,5
2023-05-22T14:04:25.000Z,5
2023-05-22T14:04:39.000Z,5
2023-05-22T14:04:46.000Z,5
2023-05-22T14:04:53.000Z,5
2023-05-22T14:05:05.000Z,5
2023-05-22T14:05:16.000Z,5
2023-05-22T14:05:32.000Z,5
2023-05-22T14:05:36.000Z,5
2023-05-22T14:05:36.000Z,4
2023-05-22T14:05:58.000Z,4
2023-05-22T14:06:14.000Z,4
2023-05-22T14:06:14.000Z,4
2023-05-22T14:06:14.000Z,5
2023-05-22T14:06:46.000Z,4
2023-05-22T14:06:46.000Z,5
2023-05-22T14:07:08.000Z,5
2023-05-22T14:07:08.000Z,5
2023-05-22T14:07:25.000Z,5
2023-05-22T14:07:40.000Z,5
2023-05-22T14:07:40.000Z,4
2023-05-22T14:07:58.000Z,4
2023-05-22T14:08:12.000Z,4
2023-05-22T14:08:22.000Z,4
2023-05-22T14:08:32.000Z,4
2023-05-22T14:08:42.000Z,4
2023-05-22T14:08:53.000Z,4
2023-05-22T14:09:01.000Z,4
2023-05-22T14:09:15.000Z,4
2023-05-22T14:09:24.000Z,5
2023-05-22T14:09:36.000Z,4
2023-05-22T14:09:45.000Z,4
2023-05-22T14:09:57.000Z,4
2023-05-22T14:10:07.000Z,4
2023-05-22T14:10:17.000Z,5
2023-05-22T14:10:28.000Z,5
2023-05-22T14:10:39.000Z,4
2023-05-22T14:10:49.000Z,4
2023-05-22T14:10:59.000Z,4
2023-05-22T14:11:10.000Z,4
2023-05-22T14:11:21.000Z,4
2023-05-22T14:11:31.000Z,4
2023-05-22T14:11:42.000Z,4
2023-05-22T14:11:52.000Z,4
2023-05-22T14:12:03.000Z,4
2023-05-22T14:12:13.000Z,4
2023-05-22T14:12:23.000Z,4
2023-05-22T14:12:34.000Z,5
2023-05-22T14:12:44.000Z,4
2023-05-22T14:12:55.000Z,5
2023-05-22T14:13:05.000Z,5
2023-05-22T14:13:15.000Z,5
2023-05-22T14:13:26.000Z,4
2023-05-22T14:13:37.000Z,4
2023-05-22T14:13:44.000Z,4
2023-05-22T14:13:58.000Z,4
2023-05-22T14:14:08.000Z,4
2023-05-22T14:14:18.000Z,4
2023-05-22T14:14:29.000Z,4
2023-05-22T14:14:39.000Z,8
2023-05-22T14:14:49.000Z,6
2023-05-22T14:15:00.000Z,9
2023-05-22T14:15:10.000Z,7
2023-05-22T14:15:21.000Z,5
2023-05-22T14:15:31.000Z,5
2023-05-22T14:15:41.000Z,4
2023-05-22T14:15:52.000Z,4
2023-05-22T14:16:02.000Z,4
2023-05-22T14:16:13.000Z,4
2023-05-22T14:16:23.000Z,4
2023-05-22T14:16:34.000Z,4
2023-05-22T14:16:44.000Z,4
2023-05-22T14:16:54.000Z,4
2023-05-22T14:17:05.000Z,5
2023-05-22T14:17:15.000Z,5
2023-05-22T14:17:26.000Z,6
2023-05-22T14:17:36.000Z,5
2023-05-22T14:17:47.000Z,4
2023-05-22T14:17:57.000Z,4
2023-05-22T14:18:07.000Z,4
2023-05-22T14:18:18.000Z,4
2023-05-22T14:18:28.000Z,3
2023-05-22T14:18:39.000Z,4
2023-05-22T14:18:49.000Z,4
2023-05-22T14:18:59.000Z,3
2023-05-22T14:19:10.000Z,4
2023-05-22T14:19:20.000Z,4
2023-05-22T14:19:30.000Z,4
2023-05-22T14:19:41.000Z,5
2023-05-22T14:19:51.000Z,4
2023-05-22T14:20:02.000Z,5
2023-05-22T14:20:12.000Z,4
2023-05-22T14:20:23.000Z,4
2023-05-22T14:20:33.000Z,4
2023-05-22T14:20:44.000Z,4
2023-05-22T14:20:54.000Z,4
2023-05-22T14:21:05.000Z,4
2023-05-22T14:21:15.000Z,4
2023-05-22T14:21:26.000Z,4
2023-05-22T14:21:36.000Z,4
2023-05-22T14:21:46.000Z,5
2023-05-22T14:21:57.000Z,7
2023-05-22T14:22:07.000Z,6
2023-05-22T14:22:17.000Z,5
2023-05-22T14:22:28.000Z,4
2023-05-22T14:22:39.000Z,4
2023-05-22T14:22:49.000Z,4
2023-05-22T14:23:00.000Z,4
2023-05-22T14:23:10.000Z,4
2023-05-22T14:23:20.000Z,4
2023-05-22T14:23:31.000Z,4
2023-05-22T14:23:41.000Z,4
2023-05-22T14:23:52.000Z,5
2023-05-22T14:24:02.000Z,5
2023-05-22T14:24:12.000Z,5
2023-05-22T14:24:23.000Z,4
2023-05-22T14:24:33.000Z,4
2023-05-22T14:24:44.000Z,5
2023-05-22T14:24:54.000Z,5
2023-05-22T14:25:04.000Z,4
2023-05-22T14:25:15.000Z,4
2023-05-22T14:25:25.000Z,4
2023-05-22T14:25:35.000Z,3
2023-05-22T14:25:44.000Z,4
2023-05-22T14:25:55.000Z,4
2023-05-22T14:26:03.000Z,4
2023-05-22T14:26:15.000Z,4
2023-05-22T14:26:28.000Z,5
2023-05-22T14:26:39.000Z,5
2023-05-22T14:26:49.000Z,5
2023-05-22T14:26:59.000Z,5
2023-05-22T14:27:10.000Z,5
2023-05-22T14:27:21.000Z,5
2023-05-22T14:27:31.000Z,6
2023-05-22T14:27:41.000Z,6
2023-05-22T14:27:51.000Z,6
2023-05-22T14:28:01.000Z,7
2023-05-22T14:28:12.000Z,6
2023-05-22T14:28:24.000Z,6
2023-05-22T14:28:32.000Z,6
2023-05-22T14:28:45.000Z,6
2023-05-22T14:28:52.000Z,14
2023-05-22T14:29:01.000Z,7
2023-05-22T14:29:14.000Z,6
2023-05-22T14:29:28.000Z,5
2023-05-22T14:29:33.000Z,5
2023-05-22T14:29:49.000Z,5
2023-05-22T14:30:00.000Z,5
2023-05-22T14:30:05.000Z,5
2023-05-22T14:30:19.000Z,5
2023-05-22T14:30:26.000Z,5
2023-05-22T14:30:35.000Z,4
2023-05-22T14:30:51.000Z,4
2023-05-22T14:31:03.000Z,4
2023-05-22T14:31:03.000Z,5
2023-05-22T14:31:21.000Z,6
2023-05-22T14:31:34.000Z,6
2023-05-22T14:31:46.000Z,6
2023-05-22T14:31:52.000Z,5
2023-05-22T14:32:05.000Z,5
2023-05-22T14:32:11.000Z,5
2023-05-22T14:32:26.000Z,5
2023-05-22T14:32:34.000Z,4
2023-05-22T14:32:49.000Z,4
2023-05-22T14:32:57.000Z,4
2023-05-22T14:33:09.000Z,4
2023-05-22T14:33:22.000Z,4
2023-05-22T14:33:28.000Z,5
2023-05-22T14:33:43.000Z,4
2023-05-22T14:33:49.000Z,4
2023-05-22T14:34:03.000Z,4
2023-05-22T14:34:10.000Z,4
2023-05-22T14:34:25.000Z,4
2023-05-22T14:34:31.000Z,4
2023-05-22T14:34:46.000Z,4
2023-05-22T14:34:54.000Z,4
2023-05-22T14:35:08.000Z,4
2023-05-22T14:35:15.000Z,4
2023-05-22T14:35:29.000Z,5
2023-05-22T14:35:37.000Z,5
2023-05-22T14:35:51.000Z,4
2023-05-22T14:35:58.000Z,4
2023-05-22T14:36:12.000Z,4
2023-05-22T14:36:23.000Z,4
2023-05-22T14:36:33.000Z,5
2023-05-22T14:36:44.000Z,5
2023-05-22T14:36:47.000Z,5
2023-05-22T14:37:05.000Z,5
2023-05-22T14:37:14.000Z,4
2023-05-22T14:37:26.000Z,4
2023-05-22T14:37:35.000Z,4
2023-05-22T14:37:47.000Z,4
2023-05-22T14:37:56.000Z,4
2023-05-22T14:38:03.000Z,4
2023-05-22T14:38:19.000Z,5
2023-05-22T14:38:28.000Z,5
2023-05-22T14:38:39.000Z,5
2023-05-22T14:38:47.000Z,5
2023-05-22T14:38:57.000Z,5
2023-05-22T14:39:12.000Z,5
2023-05-22T14:39:22.000Z,4
2023-05-22T14:39:22.000Z,4
2023-05-22T14:39:41.000Z,5
2023-05-22T14:39:52.000Z,5
2023-05-22T14:40:05.000Z,5
2023-05-22T14:40:16.000Z,5
2023-05-22T14:40:23.000Z,5
2023-05-22T14:40:37.000Z,5
2023-05-22T14:40:44.000Z,5
2023-05-22T14:40:57.000Z,6
2023-05-22T14:41:08.000Z,5
2023-05-22T14:41:14.000Z,5
2023-05-22T14:41:30.000Z,4
2023-05-22T14:41:40.000Z,5
2023-05-22T14:41:48.000Z,5
2023-05-22T14:42:01.000Z,4
2023-05-22T14:42:10.000Z,5
2023-05-22T14:42:22.000Z,5
2023-05-22T14:42:33.000Z,5
2023-05-22T14:42:43.000Z,5
2023-05-22T14:42:54.000Z,5
2023-05-22T14:43:03.000Z,5
2023-05-22T14:43:11.000Z,5
2023-05-22T14:43:25.000Z,5
2023-05-22T14:43:36.000Z,6
2023-05-22T14:43:43.000Z,6
2023-05-22T14:43:55.000Z,6
2023-05-22T14:44:07.000Z,6
2023-05-22T14:44:18.000Z,5
2023-05-22T14:44:29.000Z,5
2023-05-22T14:44:35.000Z,5
2023-05-22T14:44:49.000Z,6
2023-05-22T14:45:00.000Z,6
2023-05-22T14:45:10.000Z,6
2023-05-22T14:45:21.000Z,6
2023-05-22T14:45:31.000Z,7
2023-05-22T14:45:41.000Z,6
2023-05-22T14:45:52.000Z,5
2023-05-22T14:46:02.000Z,5
2023-05-22T14:46:13.000Z,6
2023-05-22T14:46:23.000Z,5
2023-05-22T14:46:32.000Z,5
2023-05-22T14:46:37.000Z,5
2023-05-22T14:46:53.000Z,6
2023-05-22T14:47:04.000Z,5
2023-05-22T14:47:12.000Z,5
2023-05-22T14:47:26.000Z,6
2023-05-22T14:47:35.000Z,6
2023-05-22T14:47:47.000Z,7
2023-05-22T14:47:52.000Z,6
2023-05-22T14:48:08.000Z,6
2023-05-22T14:48:08.000Z,6
2023-05-22T14:48:25.000Z,6
2023-05-22T14:48:40.000Z,6
2023-05-22T14:48:48.000Z,7
2023-05-22T14:48:54.000Z,7
2023-05-22T14:49:11.000Z,7
2023-05-22T14:49:22.000Z,7
2023-05-22T14:49:32.000Z,7
2023-05-22T14:49:40.000Z,6
2023-05-22T14:49:48.000Z,6
2023-05-22T14:49:58.000Z,6
2023-05-22T14:50:10.000Z,6
2023-05-22T17:35:10.000Z,6
2023-05-22T17:35:20.000Z,6
2023-05-22T17:35:30.000Z,6
2023-05-22T17:35:41.000Z,5
2023-05-22T17:35:51.000Z,5
2023-05-22T17:36:01.000Z,6
2023-05-22T17:36:12.000Z,6
2023-05-22T17:36:22.000Z,5
2023-05-22T17:36:33.000Z,5
2023-05-22T17:36:43.000Z,5
2023-05-22T17:36:54.000Z,5
2023-05-22T17:37:04.000Z,5
2023-05-22T17:37:14.000Z,5
2023-05-22T17:37:25.000Z,5
2023-05-22T17:37:35.000Z,5
2023-05-22T17:37:46.000Z,6
2023-05-22T17:37:56.000Z,6
2023-05-22T19:03:54.000Z,6
2023-05-22T19:04:04.000Z,6
2023-05-22T19:04:30.000Z,6
2023-05-22T19:04:40.000Z,6
2023-05-22T19:04:50.000Z,5
2023-05-22T19:05:01.000Z,5
2023-05-22T19:05:11.000Z,6
2023-05-22T19:05:21.000Z,7
2023-05-22T19:05:32.000Z,7
2023-05-22T19:05:42.000Z,6
2023-05-22T19:05:52.000Z,6
2023-05-22T19:06:03.000Z,6
2023-05-22T19:06:19.000Z,6
2023-05-22T19:06:29.000Z,6
2023-05-22T19:07:03.000Z,6
2023-05-22T19:07:27.000Z,5
2023-05-22T19:07:37.000Z,5
2023-05-22T19:08:31.000Z,6
2023-05-22T19:08:41.000Z,6
2023-05-22T19:08:51.000Z,6
2023-05-22T19:09:02.000Z,6
2023-05-22T19:09:12.000Z,6
2023-05-22T19:09:22.000Z,6
2023-05-22T19:09:33.000Z,5
2023-05-22T19:09:43.000Z,5
2023-05-22T19:09:53.000Z,5
2023-05-22T19:10:04.000Z,5
2023-05-22T19:59:30.000Z,6
